Latest Coastal Weather Observations for Eucla

IDW60701

Issued at 2:03 pm WST Thursday 21 June 2018 (issued every 10 minutes, with the page automatically refreshed every 10 minutes)

About coastal observations | Map of coastal stations | Coastal observations for WA | Marine services | Other Formats
Station Details ID: 011003 Name: EUCLA Lat: -31.68 Lon: 128.90 Height: 93.1 m
Data from the previous 72 hours. | See also: Recent months at Eucla
Date/Time
WST
Temp
°C
Wind Pressure Rain since
9am
mm
Weather Cloud Vis
km
Sea
Height
m
Swell
Dir  Spd
kts
Gust
kts
hPa Trend Height
m
Period
s
Dir
21/02:00pm 17.0 NW 6 9 1026.8 - 0.0 - - - - - - -
21/01:30pm 17.0 NNW 8 10 1026.7 - 0.0 - - - - - - -
21/01:00pm 16.3 NNW 9 14 1026.9 - 0.0 - - - - - - -
21/12:30pm 15.6 NNW 9 15 1027.2 - 0.0 - - - - - - -
21/12:00pm 15.1 NNW 9 14 1027.5 - 0.0 - - - - - - -
21/11:30am 14.7 NNW 11 15 1028.0 - 0.0 - - - - - - -
21/11:00am 15.1 NNW 10 15 1028.3 - 0.0 - - - - - - -
21/10:30am 13.9 NNW 9 14 1028.8 - 0.0 - - - - - - -
21/10:00am 13.3 NNW 9 14 1029.0 - 0.0 - - - - - - -
21/09:30am 13.6 NNW 9 14 1029.4 - 0.0 - - - - - - -
21/09:00am 13.6 NNW 11 16 1029.5 - 0.2 Fine Mostly cloudy 40 - - - -
21/08:30am 12.5 NNW 10 13 1029.5 - 0.2 - - - - - - -
21/08:00am 11.4 N 8 13 1029.3 - 0.2 - - - - - - -
21/07:30am 10.0 N 9 12 1029.0 - 0.2 - - - - - - -
21/07:00am 9.4 N 9 12 1028.8 - 0.2 - - - - - - -
21/06:30am 9.2 N 8 10 1028.5 - 0.2 - - - - - - -
21/06:00am 9.1 N 8 11 1028.2 - 0.2 - - - - - - -
21/05:30am 9.1 N 9 11 1027.8 - 0.2 - - - - - - -
21/05:00am 9.1 N 8 11 1027.7 - 0.2 - - - - - - -
21/04:30am 9.0 N 8 10 1027.5 - 0.2 - - - - - - -
21/04:00am 8.8 N 11 16 1027.1 - 0.2 - - - - - - -
21/03:30am 7.7 N 8 11 1027.4 - 0.2 - - - - - - -
21/03:00am 7.2 N 7 8 1027.5 - 0.2 - - - - - - -
21/02:30am 7.6 N 7 9 1027.5 - 0.2 - - - - - - -
21/02:00am 7.4 N 7 9 1027.6 - 0.2 - - - - - - -
21/01:30am 7.7 N 7 9 1027.6 - 0.2 - - - - - - -
21/01:00am 7.7 N 7 9 1027.7 - 0.2 - - - - - - -
21/12:30am 7.7 N 7 8 1027.8 - 0.2 - - - - - - -
21/12:00am 7.9 N 7 8 1027.8 - 0.2 - - - - - - -
 
Date/Time
WST
Temp
°C
Wind Pressure Rain since
9am
mm
Weather Cloud Vis
km
Sea
Height
m
Swell
Dir  Spd
kts
Gust
kts
hPa Trend Height
m
Period
s
Dir
20/11:30pm 7.9 N 7 8 1028.1 - 0.2 - - - - - - -
20/11:00pm 8.0 N 6 8 1028.3 - 0.2 - - - - - - -
20/10:30pm 8.2 N 6 7 1028.4 - 0.2 - - - - - - -
20/10:00pm 8.4 N 6 7 1028.6 - 0.2 - - - - - - -
20/09:30pm 8.6 N 5 6 1028.7 - 0.2 - - - - - - -
20/09:00pm 8.8 N 5 6 1028.7 - 0.2 - - - - - - -
20/08:30pm 8.8 N 5 6 1028.7 - 0.2 - - - - - - -
20/08:00pm 8.8 NNE 5 6 1028.5 - 0.2 - - - - - - -
20/07:30pm 9.2 NNE 5 6 1028.3 - 0.2 - - - - - - -
20/07:00pm 9.3 NNE 5 5 1028.2 - 0.2 - - - - - - -
20/06:30pm 10.1 ENE 5 5 1028.0 - 0.2 - - - - - - -
20/06:00pm 12.0 E 4 5 1027.7 - 0.2 - - - - - - -
20/05:30pm 12.0 E 4 5 1027.5 - 0.2 - - - - - - -
20/05:00pm 11.8 E 5 5 1027.3 - 0.2 - - - - - - -
20/04:30pm 13.2 ESE 4 5 1027.1 - 0.2 - - - - - - -
20/04:00pm 14.4 ESE 5 6 1026.9 - 0.2 - - - - - - -
20/03:30pm 15.4 SE 5 7 1026.9 - 0.2 - - - - - - -
20/03:00pm 16.2 SSE 5 7 1026.7 - 0.2 Fine Mostly clear 40 - - - -
20/02:30pm 16.6 SSE 6 8 1026.7 - 0.2 - - - - - - -
20/02:00pm 16.8 SSW 5 6 1026.6 - 0.2 - - - - - - -
20/01:30pm 17.3 SSE 5 7 1026.6 - 0.2 - - - - - - -
20/01:00pm 17.1 SSE 5 7 1026.6 - 0.2 - - - - - - -
20/12:30pm 17.3 SSW 5 8 1026.7 - 0.2 - - - - - - -
20/12:00pm 16.7 SSE 5 8 1026.8 - 0.2 Recent precip. - - - - - -
20/11:30am 16.9 S 6 9 1027.2 - 0.0 - - - - - - -
20/11:00am 16.7 SW 5 8 1027.7 - 0.0 - - - - - - -
20/10:30am 16.3 SSW 6 9 1028.0 - 0.0 - - - - - - -
20/10:00am 16.0 WSW 7 10 1028.4 - 0.0 - - - - - - -
20/09:30am 15.2 WSW 7 10 1028.8 - 0.0 - - - - - - -
20/09:00am 14.2 WSW 7 10 1028.8 - 1.4 Fine Mostly clear 40 - - - -
20/08:30am 13.0 W 7 9 1028.6 - 1.4 - - - - - - -
20/08:00am 12.0 W 6 9 1028.5 - 1.4 - - - - - - -
20/07:30am 10.8 WNW 6 9 1028.1 - 1.4 - - - - - - -
20/07:00am 9.0 WNW 7 9 1027.8 - 1.4 - - - - - - -
20/06:30am 8.3 WNW 7 10 1027.4 - 1.4 - - - - - - -
20/06:00am 10.2 WNW 8 10 1027.0 - 1.4 - - - - - - -
20/05:30am 8.8 WNW 6 8 1026.7 - 1.4 - - - - - - -
20/05:00am 8.2 WNW 6 8 1026.3 - 1.4 - - - - - - -
20/04:30am 8.7 WNW 6 8 1025.9 - 1.4 - - - - - - -
20/04:00am 9.2 WNW 6 8 1025.7 - 1.4 - - - - - - -
20/03:30am 10.3 WNW 5 7 1025.4 - 1.4 - - - - - - -
20/03:00am 10.3 WNW 5 7 1025.4 - 1.4 - - - - - - -
20/02:30am 9.9 WNW 6 7 1025.5 - 1.4 - - - - - - -
20/02:00am 10.1 WNW 5 7 1025.2 - 1.4 - - - - - - -
20/01:30am 10.1 W 5 7 1025.2 - 1.4 - - - - - - -
20/01:00am 10.2 WNW 7 9 1025.2 - 1.4 - - - - - - -
20/12:30am 10.6 W 7 9 1025.0 - 1.4 - - - - - - -
20/12:00am 10.3 WNW 5 8 1024.9 - 1.4 - - - - - - -
 
Date/Time
WST
Temp
°C
Wind Pressure Rain since
9am
mm
Weather Cloud Vis
km
Sea
Height
m
Swell
Dir  Spd
kts
Gust
kts
hPa Trend Height
m
Period
s
Dir
19/11:30pm 10.4 W 5 7 1025.1 - 1.4 - - - - - - -
19/11:00pm 10.2 W 6 9 1024.9 - 1.4 - - - - - - -
19/10:30pm 10.4 WNW 6 8 1024.8 - 1.4 - - - - - - -
19/10:00pm 10.4 W 8 13 1024.9 - 1.4 - - - - - - -
19/09:30pm 10.5 W 7 10 1024.7 - 1.4 - - - - - - -
19/09:00pm 11.0 W 8 13 1024.6 - 1.4 - - - - - - -
19/08:30pm 11.4 W 8 13 1024.6 - 1.4 - - - - - - -
19/08:00pm 11.4 W 9 14 1024.6 - 1.4 - - - - - - -
19/07:30pm 11.6 W 8 11 1024.1 - 1.4 - - - - - - -
19/07:00pm 11.7 W 7 14 1024.0 - 1.4 - - - - - - -
19/06:30pm 11.9 W 7 10 1023.8 - 1.4 - - - - - - -
19/06:00pm 12.1 W 7 10 1023.5 - 1.4 - - - - - - -
19/05:30pm 12.2 W 6 8 1023.1 - 1.4 - - - - - - -
19/05:00pm 12.4 WSW 6 8 1022.6 - 1.4 - - - - - - -
19/04:30pm 12.8 WSW 5 7 1022.2 - 1.4 - - - - - - -
19/04:00pm 13.5 SW 6 8 1021.8 - 1.4 - - - - - - -
19/03:30pm 14.5 W 7 11 1021.5 - 1.4 - - - - - - -
19/03:00pm 14.8 W 8 12 1021.3 - 1.4 Fine Partly cloudy 40 - - - -
19/02:30pm 14.9 WNW 7 9 1021.0 - 1.4 - - - - - - -
19/02:00pm 15.2 WNW 8 12 1020.7 - 1.4 - - - - - - -
19/01:30pm 14.7 WNW 8 11 1020.6 - 1.4 - - - - - - -
19/01:00pm 13.2 WNW 8 14 1020.7 - 1.4 - - - - - - -
19/12:30pm 12.4 WNW 7 11 1020.5 - 1.4 - - - - - - -
19/12:00pm 12.3 WNW 7 10 1021.1 - 1.4 - - - - - - -
19/11:30am 11.9 NW 7 11 1021.1 - 1.4 - - - - - - -
19/11:00am 11.6 WNW 7 11 1021.8 - 1.4 - - - - - - -
19/10:30am 11.3 NW 6 10 1021.9 - 0.8 - - - - - - -
19/10:00am 11.1 N 7 9 1021.3 - 0.6 - - - - - - -
19/09:30am 10.9 N 6 8 1021.8 - 0.2 - - - - - - -
19/09:00am 10.9 NW 5 5 1022.5 - 6.0 Rain Cloudy 0.5 - - - -
19/08:30am 10.9 W 5 7 1022.2 - 5.0 - - - - - - -
19/08:00am 10.6 W 5 8 1022.0 - 3.8 - - - - - - -
19/07:30am 10.8 W 6 8 1021.7 - 2.6 - - - - - - -
19/07:00am 10.5 WNW 5 7 1021.5 - 1.4 - - - - - - -
19/06:30am 9.9 WNW 6 9 1020.9 - 0.6 - - - - - - -
19/06:00am 10.1 NW 4 6 1020.5 - 0.4 Rain - - - - - -
19/05:30am 10.6 WNW 6 8 1020.2 - 0.2 - - - - - - -
19/05:00am 10.5 NW 7 10 1019.7 - 0.2 - - - - - - -
19/04:30am 11.1 NW 7 10 1019.7 - 0.0 - - - - - - -
19/04:00am 12.6 WNW 8 13 1019.6 - 0.0 - - - - - - -
19/03:30am 13.3 N 9 12 1019.3 - 0.0 - - - - - - -
19/03:00am 13.4 N 10 14 1018.6 - 0.0 - - - - - - -
19/02:30am 13.6 N 10 15 1018.6 - 0.0 - - - - - - -
19/02:00am 13.6 N 11 16 1018.5 - 0.0 - - - - - - -
19/01:30am 13.2 N 12 16 1018.4 - 0.0 - - - - - - -
19/01:00am 13.6 N 13 18 1018.9 - 0.0 - - - - - - -
19/12:30am 13.3 N 13 19 1019.1 - 0.0 - - - - - - -
19/12:00am 13.5 N 14 19 1019.4 - 0.0 - - - - - - -
 
Date/Time
WST
Temp
°C
Wind Pressure Rain since
9am
mm
Weather Cloud Vis
km
Sea
Height
m
Swell
Dir  Spd
kts
Gust
kts
hPa Trend Height
m
Period
s
Dir
18/11:30pm 13.5 N 14 21 1019.2 - 0.0 - - - - - - -
18/11:00pm 13.5 N 14 20 1019.1 - 0.0 - - - - - - -
18/10:30pm 13.5 N 14 19 1019.3 - 0.0 - - - - - - -
18/10:00pm 14.0 N 12 17 1020.1 - 0.0 - - - - - - -
18/09:30pm 14.1 N 14 20 1020.1 - 0.0 - - - - - - -
18/09:00pm 14.0 N 13 19 1020.5 - 0.0 - - - - - - -
18/08:30pm 14.0 NNE 12 18 1020.8 - 0.0 - - - - - - -
18/08:00pm 14.1 N 12 18 1020.9 - 0.0 - - - - - - -
18/07:30pm 14.0 NNE 10 15 1021.1 - 0.0 - - - - - - -
18/07:00pm 13.2 NNE 8 12 1021.1 - 0.0 - - - - - - -
18/06:30pm 12.7 NNE 7 9 1020.9 - 0.0 - - - - - - -
18/06:00pm 12.9 NNE 7 8 1021.4 - 0.0 - - - - - - -
18/05:30pm 13.8 NNE 6 7 1021.6 - 0.0 - - - - - - -
18/05:00pm 14.9 N 6 7 1021.6 - 0.0 - - - - - - -
18/04:30pm 16.1 NNE 7 12 1021.1 - 0.0 - - - - - - -
18/04:00pm 17.0 N 9 13 1021.2 - 0.0 - - - - - - -
18/03:30pm 17.3 N 10 16 1020.9 - 0.0 - - - - - - -
18/03:00pm 17.3 N 12 19 1020.6 - 0.0 Fine Mostly cloudy 40 - - - -
18/02:30pm 17.9 N 11 17 1021.1 - 0.0 - - - - - - -

Other Formats:

Comma delimited format used in spreadsheet applications
http://www.bom.gov.au/fwo/IDW60701/IDW60701.94647.axf

JavaScript Object Notation format (JSON) in row-major order
http://www.bom.gov.au/fwo/IDW60701/IDW60701.94647.json